Decoded Metar for UGKO (KOPITNARI in GEORGIA) (IATA:N/A) | Meteo·Mobile Aviation Weather
aviador You're here:

UGKO Decoded Metar

KOPITNARI in GEORGIA
Report Time2019-04-18 21:00:00
UTC Time2019-04-18 21:10:49
Flight Rules vfr VFR
Wind290° at 04 kt
W.Decomp.*RWY 26: 3.7 kt HW 1.6 kt RCW
Visibility9999 m
Phenomena:N/A
Clouds:Scattered 021 Hf
Overcast 043 Hf
Expected CloudBase > 400 ft AGL from Temp-Dew spread
Ceiling4,300 ft
Temp09°C (ISA -6)
Dew Point08°C (94% RH)
AAT7.1°C
QNH1018 hPa
Density Alt-466 ft
Elevation223 ft
Report Wrong Elevation
Raw Report
METAR UGKO 182100Z 29004KT 270V340 9999 SCT021 OVC043 09/08 Q1018 NOSIG=

Extra information for UGKO:More info

Metar Taf Metar & Taf Last 4 Metars F.Rules Stats Wind Profile Meteogram Temp Stats Airport Information Weather charts Add Link Nearby VenuesMetar ALERT Operation Metar Decoded Social comments